createdAt,value
2023-05-05T00:01:08.669Z,14.90
2023-05-05T00:03:35.848Z,15.20
2023-05-05T00:06:03.172Z,15.20
2023-05-05T00:08:29.760Z,15.30
2023-05-05T00:10:57.538Z,15.40
2023-05-05T00:13:24.422Z,15.50
2023-05-05T00:15:52.387Z,15.30
2023-05-05T00:18:19.297Z,15.00
2023-05-05T00:20:47.114Z,15.60
2023-05-05T00:23:14.564Z,15.60
2023-05-05T00:25:41.266Z,15.20
2023-05-05T00:28:08.078Z,14.80
2023-05-05T00:30:36.226Z,15.00
2023-05-05T00:33:03.039Z,15.10
2023-05-05T00:35:29.608Z,15.20
2023-05-05T00:37:56.165Z,15.30
2023-05-05T00:40:23.445Z,15.50
2023-05-05T00:42:53.354Z,15.60
2023-05-05T00:45:20.526Z,15.50
2023-05-05T00:47:52.577Z,15.30
2023-05-05T00:50:28.639Z,15.60
2023-05-05T00:52:57.880Z,15.50
2023-05-05T00:55:24.380Z,15.40
2023-05-05T00:57:51.022Z,15.50
2023-05-05T01:00:17.879Z,15.00
2023-05-05T01:02:45.031Z,14.80
2023-05-05T01:05:13.638Z,14.80
2023-05-05T01:07:43.245Z,14.80
2023-05-05T01:10:23.304Z,14.80
2023-05-05T01:13:13.098Z,14.90
2023-05-05T01:15:46.487Z,14.90
2023-05-05T01:18:24.830Z,14.60
2023-05-05T01:21:06.324Z,14.60
2023-05-05T01:23:43.606Z,15.10
2023-05-05T01:26:47.837Z,14.80
2023-05-05T01:29:34.241Z,14.70
2023-05-05T01:32:13.285Z,14.60
2023-05-05T01:34:47.691Z,14.30
2023-05-05T01:37:28.004Z,14.30
2023-05-05T01:39:57.821Z,14.70
2023-05-05T01:42:25.836Z,14.70
2023-05-05T01:44:54.183Z,14.80
2023-05-05T01:47:22.475Z,14.90
2023-05-05T01:49:50.264Z,14.50
2023-05-05T01:52:17.772Z,14.60
2023-05-05T01:54:45.503Z,14.10
2023-05-05T01:57:12.917Z,14.30
2023-05-05T01:59:39.836Z,14.40
2023-05-05T02:02:08.730Z,14.40
2023-05-05T02:04:37.317Z,14.60
2023-05-05T02:07:04.928Z,14.50
2023-05-05T02:09:32.507Z,14.50
2023-05-05T02:11:59.750Z,14.60
2023-05-05T02:14:29.779Z,14.60
2023-05-05T02:16:57.302Z,14.70
2023-05-05T02:19:29.513Z,14.80
2023-05-05T02:21:56.462Z,14.50
2023-05-05T02:24:23.847Z,14.30
2023-05-05T02:26:52.110Z,14.30
2023-05-05T02:29:31.722Z,14.50
2023-05-05T02:32:09.850Z,14.70
2023-05-05T02:34:38.536Z,14.50
2023-05-05T02:37:11.065Z,14.60
2023-05-05T02:39:51.520Z,14.40
2023-05-05T02:42:21.186Z,14.50
2023-05-05T02:44:49.797Z,14.40
2023-05-05T02:47:16.515Z,14.30
2023-05-05T02:49:43.407Z,14.20
2023-05-05T02:52:10.078Z,14.10
2023-05-05T02:54:38.376Z,14.20
2023-05-05T02:57:15.564Z,14.10
2023-05-05T02:59:42.264Z,14.20
2023-05-05T03:02:18.591Z,14.00
2023-05-05T03:05:00.609Z,14.10
2023-05-05T03:07:52.857Z,14.10
2023-05-05T03:10:21.698Z,14.20
2023-05-05T03:12:54.575Z,14.30
2023-05-05T03:15:40.892Z,14.00
2023-05-05T03:18:10.539Z,14.10
2023-05-05T03:20:39.288Z,14.10
2023-05-05T03:23:08.614Z,14.10
2023-05-05T03:25:49.685Z,14.10
2023-05-05T03:28:28.311Z,14.00
2023-05-05T03:30:56.969Z,13.70
2023-05-05T03:33:24.046Z,13.60
2023-05-05T03:35:51.015Z,13.80
2023-05-05T03:38:18.584Z,13.80
2023-05-05T03:40:45.824Z,13.70
2023-05-05T03:43:16.901Z,13.70
2023-05-05T03:45:43.530Z,13.50
2023-05-05T03:48:10.747Z,13.60
2023-05-05T03:50:39.326Z,13.60
2023-05-05T03:53:06.020Z,13.60
2023-05-05T03:55:32.888Z,13.60
2023-05-05T03:57:59.435Z,13.70
2023-05-05T04:00:26.218Z,13.50
2023-05-05T04:02:52.866Z,13.50
2023-05-05T04:05:20.290Z,13.50
2023-05-05T04:07:47.013Z,13.70
2023-05-05T04:10:14.810Z,13.50
2023-05-05T04:12:41.629Z,13.50
2023-05-05T04:15:08.834Z,13.30
2023-05-05T04:17:36.027Z,13.50
2023-05-05T04:20:03.341Z,13.60
2023-05-05T04:22:32.317Z,13.40
2023-05-05T04:24:58.844Z,13.50
2023-05-05T04:27:26.199Z,13.30
2023-05-05T04:29:53.365Z,13.20
2023-05-05T04:32:19.969Z,13.20
2023-05-05T04:34:47.032Z,13.00
2023-05-05T04:37:13.682Z,12.90
2023-05-05T04:39:41.406Z,12.80
2023-05-05T04:42:08.932Z,13.00
2023-05-05T04:44:36.394Z,13.10
2023-05-05T04:47:04.119Z,12.80
2023-05-05T04:49:31.604Z,12.90
2023-05-05T04:51:59.121Z,12.80
2023-05-05T04:54:25.814Z,12.90
2023-05-05T04:56:52.608Z,12.90
2023-05-05T04:59:19.107Z,12.90
2023-05-05T05:01:46.651Z,13.00
2023-05-05T05:04:13.807Z,12.90
2023-05-05T05:06:40.404Z,12.90
2023-05-05T05:09:06.932Z,13.10
2023-05-05T05:11:33.727Z,13.00
2023-05-05T05:14:00.793Z,13.20
2023-05-05T05:16:27.512Z,13.20
2023-05-05T05:18:54.890Z,13.10
2023-05-05T05:21:21.877Z,13.10
2023-05-05T05:23:48.556Z,13.10
2023-05-05T05:26:15.155Z,13.10
2023-05-05T05:28:42.467Z,13.20
2023-05-05T05:31:09.094Z,13.20
2023-05-05T05:33:36.026Z,13.20
2023-05-05T05:36:02.712Z,13.50
2023-05-05T05:38:30.310Z,13.30
2023-05-05T05:41:00.318Z,13.30
2023-05-05T05:43:26.857Z,13.50
2023-05-05T05:45:53.425Z,13.60
2023-05-05T05:48:22.075Z,13.60
2023-05-05T05:50:48.552Z,13.60
2023-05-05T05:53:15.062Z,13.50
2023-05-05T05:55:42.130Z,13.50
2023-05-05T05:58:08.766Z,13.60
2023-05-05T06:00:35.464Z,13.60
2023-05-05T06:03:07.251Z,13.60
2023-05-05T06:05:36.670Z,13.70
2023-05-05T06:08:03.350Z,13.80
2023-05-05T06:10:32.682Z,13.90
2023-05-05T06:13:04.800Z,14.00
2023-05-05T06:15:32.791Z,14.20
2023-05-05T06:18:01.261Z,14.10
2023-05-05T06:20:27.889Z,14.30
2023-05-05T06:22:55.325Z,14.50
2023-05-05T06:25:22.773Z,14.40
2023-05-05T06:27:50.318Z,14.40
2023-05-05T06:30:17.698Z,14.50
2023-05-05T06:32:44.320Z,14.30
2023-05-05T06:35:10.999Z,14.20
2023-05-05T06:37:37.547Z,14.10
2023-05-05T06:40:06.973Z,14.00
2023-05-05T06:42:33.871Z,14.40
2023-05-05T06:45:03.552Z,14.60
2023-05-05T06:47:30.066Z,15.00
2023-05-05T06:49:56.709Z,15.10
2023-05-05T06:52:23.359Z,15.10
2023-05-05T06:54:52.506Z,15.00
2023-05-05T06:57:19.128Z,15.20
2023-05-05T06:59:45.773Z,15.30
2023-05-05T07:02:12.349Z,15.50
2023-05-05T07:04:38.850Z,15.70
2023-05-05T07:07:05.431Z,15.60
2023-05-05T07:09:31.944Z,15.40
2023-05-05T07:11:58.751Z,15.40
2023-05-05T07:14:27.327Z,15.50
2023-05-05T07:16:54.317Z,15.90
2023-05-05T07:19:20.875Z,16.00
2023-05-05T07:21:47.664Z,15.60
2023-05-05T07:24:14.244Z,15.60
2023-05-05T07:26:41.296Z,15.60
2023-05-05T07:29:07.929Z,15.60
2023-05-05T07:31:34.529Z,15.70
2023-05-05T07:34:01.167Z,15.90
2023-05-05T07:36:27.856Z,16.00
2023-05-05T07:38:54.823Z,16.10
2023-05-05T07:41:21.470Z,16.40
2023-05-05T07:43:48.136Z,16.80
2023-05-05T07:46:14.882Z,17.00
2023-05-05T07:48:41.896Z,17.00
2023-05-05T07:51:09.474Z,17.00
2023-05-05T07:53:36.323Z,17.30
2023-05-05T07:56:03.320Z,17.40
2023-05-05T07:58:30.047Z,17.20
2023-05-05T08:00:56.590Z,17.20
2023-05-05T08:03:25.569Z,17.40
2023-05-05T08:05:53.708Z,17.70
2023-05-05T08:08:26.669Z,17.80
2023-05-05T08:10:53.515Z,18.00
2023-05-05T08:13:20.333Z,18.10
2023-05-05T08:15:47.226Z,18.20
2023-05-05T08:18:14.633Z,18.50
2023-05-05T08:20:41.274Z,18.70
2023-05-05T08:23:08.012Z,19.00
2023-05-05T08:25:34.708Z,19.10
2023-05-05T08:28:01.460Z,19.20
2023-05-05T08:30:28.237Z,19.50
2023-05-05T08:32:55.162Z,19.10
2023-05-05T08:35:22.004Z,19.00
2023-05-05T08:37:48.538Z,19.10
2023-05-05T08:40:15.156Z,19.40
2023-05-05T08:42:42.466Z,19.40
2023-05-05T08:45:10.580Z,20.00
2023-05-05T08:47:38.196Z,20.00
2023-05-05T08:50:08.398Z,19.90
2023-05-05T08:52:44.157Z,19.70
2023-05-05T08:55:27.228Z,19.20
2023-05-05T08:57:57.884Z,19.20
2023-05-05T09:00:27.014Z,19.60
2023-05-05T09:02:56.150Z,19.70
2023-05-05T09:05:22.954Z,20.20
2023-05-05T09:07:50.599Z,20.20
2023-05-05T09:10:17.716Z,20.70
2023-05-05T09:12:44.359Z,20.90
2023-05-05T09:15:12.710Z,21.20
2023-05-05T09:17:39.943Z,21.30
2023-05-05T09:20:08.457Z,21.60
2023-05-05T09:22:39.895Z,22.10
2023-05-05T09:25:08.078Z,21.90
2023-05-05T09:27:46.087Z,22.10
2023-05-05T09:30:18.511Z,22.20
2023-05-05T09:32:53.351Z,22.30
2023-05-05T09:35:21.339Z,22.70
2023-05-05T09:37:47.959Z,22.60
2023-05-05T09:40:17.846Z,22.40
2023-05-05T09:42:44.947Z,22.70
2023-05-05T09:45:17.798Z,22.90
2023-05-05T09:47:45.950Z,23.20
2023-05-05T09:50:17.177Z,23.70
2023-05-05T09:52:54.989Z,23.90
2023-05-05T09:55:21.852Z,23.40
2023-05-05T09:57:48.567Z,23.20
2023-05-05T10:00:15.728Z,23.40
2023-05-05T10:02:42.407Z,23.90
2023-05-05T10:05:16.653Z,23.60
2023-05-05T10:07:45.029Z,24.30
2023-05-05T10:10:21.037Z,24.50
2023-05-05T10:12:49.513Z,24.90
2023-05-05T10:15:16.341Z,24.50
2023-05-05T10:18:05.216Z,23.90
2023-05-05T10:20:33.453Z,24.10
2023-05-05T10:23:02.783Z,24.10
2023-05-05T10:25:33.668Z,23.90
2023-05-05T10:28:01.188Z,24.20
2023-05-05T10:30:34.016Z,24.70
2023-05-05T10:35:41.682Z,24.20
2023-05-05T10:38:09.837Z,24.20
2023-05-05T10:40:36.597Z,24.40
2023-05-05T10:43:04.069Z,24.10
2023-05-05T10:45:30.876Z,23.90
2023-05-05T10:47:59.334Z,24.30
2023-05-05T10:50:33.055Z,24.50
2023-05-05T10:53:19.337Z,25.10
2023-05-05T10:56:16.356Z,25.50
2023-05-05T10:58:58.307Z,25.90
2023-05-05T11:01:31.145Z,25.90
2023-05-05T11:04:16.838Z,25.90
2023-05-05T11:07:09.768Z,26.40
2023-05-05T11:09:55.321Z,26.30
2023-05-05T11:12:22.165Z,26.20
2023-05-05T11:15:23.694Z,26.20
2023-05-05T11:17:50.334Z,26.50
2023-05-05T11:20:17.243Z,25.70
2023-05-05T11:23:02.462Z,26.20
2023-05-05T11:25:36.212Z,26.20
2023-05-05T11:28:11.390Z,26.50
2023-05-05T11:30:58.723Z,27.00
2023-05-05T11:33:26.840Z,27.20
2023-05-05T11:36:08.719Z,27.20
2023-05-05T11:38:53.683Z,27.10
2023-05-05T11:41:32.615Z,26.80
2023-05-05T11:44:32.172Z,26.50
2023-05-05T11:47:02.376Z,25.80
2023-05-05T11:49:33.146Z,25.70
2023-05-05T11:52:02.126Z,26.00
2023-05-05T11:54:29.176Z,26.10
2023-05-05T11:57:05.337Z,25.90
2023-05-05T11:59:32.411Z,26.00
2023-05-05T12:01:59.691Z,25.60
2023-05-05T12:04:26.479Z,25.80
2023-05-05T12:06:53.024Z,25.80
2023-05-05T12:09:21.333Z,25.90
2023-05-05T12:11:55.681Z,26.10
2023-05-05T12:14:23.584Z,25.90
2023-05-05T12:16:56.593Z,25.90
2023-05-05T12:19:23.681Z,25.90
2023-05-05T12:21:50.632Z,25.90
2023-05-05T12:24:17.192Z,26.00
2023-05-05T12:26:43.779Z,25.00
2023-05-05T12:29:10.966Z,25.50
2023-05-05T12:31:39.355Z,25.90
2023-05-05T12:34:07.748Z,25.80
2023-05-05T12:36:34.703Z,25.90
2023-05-05T12:39:01.608Z,25.70
2023-05-05T12:41:28.508Z,25.10
2023-05-05T12:43:59.181Z,25.50
2023-05-05T12:46:26.413Z,25.30
2023-05-05T12:49:07.503Z,25.90
2023-05-05T12:51:35.954Z,26.10
2023-05-05T12:54:11.326Z,26.10
2023-05-05T12:56:42.303Z,26.30
2023-05-05T12:59:10.357Z,26.10
2023-05-05T13:01:48.483Z,25.80
2023-05-05T13:04:15.358Z,26.20
2023-05-05T13:06:43.963Z,26.40
2023-05-05T13:09:26.434Z,26.80
2023-05-05T13:11:54.654Z,26.60
2023-05-05T13:14:21.415Z,26.80
2023-05-05T13:16:47.939Z,26.00
2023-05-05T13:19:14.528Z,25.90
2023-05-05T13:21:41.773Z,25.70
2023-05-05T13:24:23.536Z,25.90
2023-05-05T13:26:53.202Z,26.10
2023-05-05T13:29:19.965Z,26.50
2023-05-05T13:31:46.707Z,26.40
2023-05-05T13:34:16.490Z,26.20
2023-05-05T13:36:51.912Z,26.30
2023-05-05T13:39:25.228Z,26.70
2023-05-05T13:41:54.857Z,26.30
2023-05-05T13:44:22.176Z,26.40
2023-05-05T13:46:48.901Z,26.60
2023-05-05T13:49:15.502Z,26.90
2023-05-05T13:51:42.107Z,26.50
2023-05-05T13:54:08.642Z,26.10
2023-05-05T13:56:35.245Z,26.40
2023-05-05T13:59:02.354Z,26.60
2023-05-05T14:01:29.644Z,26.70
2023-05-05T14:03:57.649Z,26.80
2023-05-05T14:06:24.518Z,26.90
2023-05-05T14:08:51.624Z,26.70
2023-05-05T14:11:18.184Z,26.60
2023-05-05T14:13:46.411Z,27.00
2023-05-05T14:16:13.279Z,26.70
2023-05-05T14:18:39.892Z,26.70
2023-05-05T14:21:06.512Z,26.50
2023-05-05T14:23:33.191Z,26.40
2023-05-05T14:25:59.714Z,25.90
2023-05-05T14:28:26.449Z,25.80
2023-05-05T14:30:53.003Z,25.40
2023-05-05T14:33:19.655Z,25.30
2023-05-05T14:35:46.226Z,25.60
2023-05-05T14:38:12.817Z,25.80
2023-05-05T14:40:39.647Z,25.70
2023-05-05T14:43:06.141Z,25.40
2023-05-05T14:45:32.813Z,25.30
2023-05-05T14:47:59.696Z,25.00
2023-05-05T14:50:26.287Z,24.50
2023-05-05T14:52:52.948Z,24.50
2023-05-05T14:55:19.634Z,24.00
2023-05-05T14:57:46.102Z,24.00
2023-05-05T15:00:13.266Z,24.10
2023-05-05T15:02:39.984Z,24.10
2023-05-05T15:05:07.457Z,24.10
2023-05-05T15:07:34.324Z,23.90
2023-05-05T15:10:00.877Z,23.50
2023-05-05T15:12:27.838Z,23.60
2023-05-05T15:14:55.459Z,23.50
2023-05-05T15:17:22.142Z,23.20
2023-05-05T15:19:48.773Z,23.10
2023-05-05T15:22:15.434Z,22.80
2023-05-05T15:24:42.015Z,22.50
2023-05-05T15:27:10.807Z,22.70
2023-05-05T15:29:37.370Z,22.80
2023-05-05T15:32:04.102Z,22.90
2023-05-05T15:34:30.862Z,22.90
2023-05-05T15:36:57.369Z,22.70
2023-05-05T15:39:24.074Z,22.20
2023-05-05T15:41:50.949Z,22.40
2023-05-05T15:44:17.574Z,22.50
2023-05-05T15:46:44.074Z,22.80
2023-05-05T15:49:10.668Z,22.90
2023-05-05T15:51:37.343Z,22.60
2023-05-05T15:54:04.073Z,21.90
2023-05-05T15:56:30.573Z,21.90
2023-05-05T15:58:57.133Z,21.90
2023-05-05T16:01:23.757Z,21.90
2023-05-05T16:03:50.450Z,21.90
2023-05-05T16:06:17.057Z,22.00
2023-05-05T16:08:43.842Z,22.20
2023-05-05T16:11:10.362Z,22.30
2023-05-05T16:13:38.907Z,22.10
2023-05-05T16:16:06.761Z,22.10
2023-05-05T16:18:33.508Z,22.00
2023-05-05T16:21:00.061Z,21.80
2023-05-05T16:23:26.630Z,21.90
2023-05-05T16:25:53.237Z,21.50
2023-05-05T16:28:19.925Z,21.60
2023-05-05T16:30:46.579Z,21.60
2023-05-05T16:33:13.129Z,21.50
2023-05-05T16:35:39.666Z,21.50
2023-05-05T16:38:06.338Z,21.40
2023-05-05T16:40:32.919Z,21.50
2023-05-05T16:43:00.909Z,21.40
2023-05-05T16:45:27.458Z,21.20
2023-05-05T16:47:55.471Z,21.20
2023-05-05T16:50:22.923Z,21.20
2023-05-05T16:52:49.533Z,21.20
2023-05-05T16:55:16.107Z,21.20
2023-05-05T16:57:42.613Z,21.20
2023-05-05T17:00:10.228Z,21.00
2023-05-05T17:02:36.818Z,21.10
2023-05-05T17:05:03.724Z,21.00
2023-05-05T17:07:30.472Z,21.10
2023-05-05T17:09:56.931Z,21.00
2023-05-05T17:12:23.741Z,20.60
2023-05-05T17:14:51.227Z,20.60
2023-05-05T17:17:18.172Z,20.80
2023-05-05T17:19:45.345Z,20.60
2023-05-05T17:22:11.847Z,20.50
2023-05-05T17:24:38.405Z,20.50
2023-05-05T17:27:05.039Z,20.60
2023-05-05T17:29:32.704Z,20.70
2023-05-05T17:31:59.218Z,20.40
2023-05-05T17:34:25.751Z,20.30
2023-05-05T17:36:52.335Z,20.30
2023-05-05T17:39:18.853Z,20.20
2023-05-05T17:41:45.352Z,20.20
2023-05-05T17:44:11.881Z,20.30
2023-05-05T17:46:39.261Z,20.20
2023-05-05T17:49:05.989Z,19.70
2023-05-05T17:51:32.541Z,19.50
2023-05-05T17:53:59.057Z,19.40
2023-05-05T17:56:25.771Z,19.50
2023-05-05T17:58:53.773Z,19.50
2023-05-05T18:01:22.170Z,19.50
2023-05-05T18:03:49.099Z,19.40
2023-05-05T18:06:15.789Z,19.20
2023-05-05T18:08:42.676Z,19.30
2023-05-05T18:11:09.244Z,19.20
2023-05-05T18:13:35.845Z,19.20
2023-05-05T18:16:02.402Z,19.30
2023-05-05T18:18:29.429Z,19.20
2023-05-05T18:20:56.028Z,18.90
2023-05-05T18:23:22.644Z,19.00
2023-05-05T18:25:49.294Z,19.00
2023-05-05T18:28:15.837Z,18.90
2023-05-05T18:30:42.416Z,18.90
2023-05-05T18:33:08.946Z,18.70
2023-05-05T18:35:35.607Z,18.90
2023-05-05T18:38:03.237Z,18.80
2023-05-05T18:40:29.861Z,18.60
2023-05-05T18:42:56.851Z,18.80
2023-05-05T18:45:23.499Z,19.00
2023-05-05T18:47:50.067Z,19.10
2023-05-05T18:50:16.803Z,18.90
2023-05-05T18:52:43.386Z,18.70
2023-05-05T18:55:10.378Z,18.70
2023-05-05T18:57:37.126Z,18.60
2023-05-05T19:00:04.281Z,18.70
2023-05-05T19:02:31.079Z,18.70
2023-05-05T19:04:57.947Z,18.60
2023-05-05T19:07:34.472Z,18.50
2023-05-05T19:10:04.137Z,18.40
2023-05-05T19:12:30.857Z,18.40
2023-05-05T19:14:57.774Z,18.30
2023-05-05T19:17:24.573Z,18.50
2023-05-05T19:19:51.503Z,18.50
2023-05-05T19:22:18.129Z,18.50
2023-05-05T19:24:44.796Z,18.70
2023-05-05T19:27:15.500Z,18.30
2023-05-05T19:29:43.447Z,18.10
2023-05-05T19:32:10.040Z,18.30
2023-05-05T19:34:36.929Z,18.30
2023-05-05T19:37:03.685Z,18.00
2023-05-05T19:39:30.347Z,18.20
2023-05-05T19:41:56.996Z,18.10
2023-05-05T19:44:23.841Z,18.10
2023-05-05T19:46:52.522Z,17.80
2023-05-05T19:49:19.193Z,17.40
2023-05-05T19:51:47.625Z,17.50
2023-05-05T19:54:14.299Z,17.80
2023-05-05T19:56:41.087Z,18.00
2023-05-05T19:59:07.724Z,18.00
2023-05-05T20:01:35.402Z,17.70
2023-05-05T20:04:03.555Z,17.70
2023-05-05T20:06:30.297Z,17.60
2023-05-05T20:08:56.912Z,17.50
2023-05-05T20:11:27.728Z,17.30
2023-05-05T20:13:54.331Z,17.30
2023-05-05T20:16:21.842Z,17.40
2023-05-05T20:18:48.814Z,17.30
2023-05-05T20:21:16.696Z,17.40
2023-05-05T20:23:44.509Z,17.60
2023-05-05T20:26:11.859Z,17.40
2023-05-05T20:28:39.455Z,17.60
2023-05-05T20:31:06.997Z,17.30
2023-05-05T20:33:33.794Z,17.20
2023-05-05T20:36:00.424Z,17.10
2023-05-05T20:38:27.039Z,17.10
2023-05-05T20:40:53.744Z,17.10
2023-05-05T20:43:21.078Z,17.10
2023-05-05T20:45:47.778Z,16.80
2023-05-05T20:48:14.372Z,16.90
2023-05-05T20:50:41.358Z,16.80
2023-05-05T20:53:08.839Z,16.90
2023-05-05T20:55:35.584Z,16.60
2023-05-05T20:58:02.422Z,16.40
2023-05-05T21:00:29.034Z,16.60
2023-05-05T21:02:57.037Z,16.80
2023-05-05T21:05:24.140Z,17.00
2023-05-05T21:07:51.007Z,17.00
2023-05-05T21:10:17.743Z,17.10
2023-05-05T21:12:44.369Z,17.00
2023-05-05T21:15:17.650Z,16.90
2023-05-05T21:17:44.347Z,17.00
2023-05-05T21:20:12.054Z,17.00
2023-05-05T21:22:38.952Z,16.90
2023-05-05T21:25:09.978Z,16.90
2023-05-05T21:27:36.487Z,16.70
2023-05-05T21:30:03.271Z,16.70
2023-05-05T21:32:31.144Z,16.60
2023-05-05T21:34:58.247Z,16.40
2023-05-05T21:37:26.105Z,16.40
2023-05-05T21:39:53.601Z,16.50
2023-05-05T21:42:20.183Z,16.40
2023-05-05T21:44:46.966Z,16.40
2023-05-05T21:47:13.553Z,16.50
2023-05-05T21:49:40.286Z,16.70
2023-05-05T21:52:07.100Z,16.70
2023-05-05T21:54:33.796Z,16.60
2023-05-05T21:57:00.540Z,16.50
2023-05-05T21:59:28.762Z,16.10
2023-05-05T22:01:55.338Z,16.30
2023-05-05T22:04:25.298Z,16.40
2023-05-05T22:06:52.148Z,16.50
2023-05-05T22:09:18.774Z,16.70
2023-05-05T22:11:45.449Z,16.80
2023-05-05T22:14:12.192Z,16.70
2023-05-05T22:16:39.032Z,16.30
2023-05-05T22:19:06.799Z,16.40
2023-05-05T22:21:33.365Z,16.30
2023-05-05T22:23:59.989Z,16.10
2023-05-05T22:26:26.699Z,16.10
2023-05-05T22:28:53.300Z,16.00
2023-05-05T22:31:20.212Z,15.90
2023-05-05T22:33:46.825Z,15.70
2023-05-05T22:36:14.270Z,15.70
2023-05-05T22:38:41.022Z,15.70
2023-05-05T22:41:08.147Z,15.90
2023-05-05T22:43:34.720Z,16.00
2023-05-05T22:46:01.362Z,16.00
2023-05-05T22:48:27.958Z,15.90
2023-05-05T22:50:54.577Z,16.00
2023-05-05T22:53:21.199Z,15.90
2023-05-05T22:55:47.788Z,15.70
2023-05-05T22:58:14.328Z,15.70
2023-05-05T23:00:41.105Z,15.80
2023-05-05T23:03:08.248Z,15.90
2023-05-05T23:05:35.764Z,16.00
2023-05-05T23:08:02.581Z,16.10
2023-05-05T23:10:30.003Z,16.20
2023-05-05T23:12:56.801Z,15.70
2023-05-05T23:15:24.907Z,15.80
2023-05-05T23:17:51.684Z,15.90
2023-05-05T23:20:18.445Z,16.00
2023-05-05T23:22:45.194Z,15.70
2023-05-05T23:25:12.491Z,15.70
2023-05-05T23:27:40.068Z,15.70
2023-05-05T23:30:11.105Z,16.00
2023-05-05T23:32:37.912Z,15.80
2023-05-05T23:35:05.124Z,15.80
2023-05-05T23:37:31.754Z,16.10
2023-05-05T23:39:58.404Z,16.30
2023-05-05T23:42:25.206Z,16.20
2023-05-05T23:44:51.827Z,16.30
2023-05-05T23:47:18.450Z,16.20
2023-05-05T23:49:45.090Z,16.20
2023-05-05T23:52:11.646Z,16.30
2023-05-05T23:54:38.237Z,16.30
2023-05-05T23:57:04.926Z,15.90
2023-05-05T23:59:31.544Z,15.50
